Time;durP1;ratioP1;P1;durP2;ratioP2;P2;SDS_P1;SDS_P2;PMS_P1;PMS_P2;Temp;Humidity;BMP_temperature;BMP_pressure;BME280_temperature;BME280_humidity;BME280_pressure;Samples;Min_cycle;Max_cycle;Signal;HPM_P1;HPM_P2
2021/06/16 00:00:10;;;;;;;4.50;2.40;;;17.00;99.90;;;;;;5071305;28;20262;-63
2021/06/16 00:02:36;;;;;;;4.33;2.40;;;16.90;99.90;;;;;;5074259;28;20211;-63
2021/06/16 00:05:05;;;;;;;7.50;2.73;;;16.90;99.90;;;;;;5073718;28;20229;-63
2021/06/16 00:07:32;;;;;;;9.30;3.00;;;16.80;99.90;;;;;;5074136;28;20342;-62
2021/06/16 00:09:59;;;;;;;5.57;2.53;;;16.80;99.90;;;;;;5074777;28;20634;-63
2021/06/16 00:12:27;;;;;;;7.37;2.70;;;16.80;99.90;;;;;;5074396;28;20580;-63
2021/06/16 00:14:54;;;;;;;7.60;2.80;;;16.70;99.90;;;;;;5073494;28;20208;-63
2021/06/16 00:17:21;;;;;;;5.73;2.77;;;16.70;99.90;;;;;;5074910;28;20232;-63
2021/06/16 00:19:47;;;;;;;9.00;3.10;;;16.60;99.90;;;;;;5073892;28;20205;-63
2021/06/16 00:22:14;;;;;;;8.27;3.27;;;16.60;99.90;;;;;;5074268;28;20210;-64
2021/06/16 00:24:41;;;;;;;6.67;3.00;;;16.60;99.90;;;;;;5073909;28;20569;-63
2021/06/16 00:27:08;;;;;;;9.40;3.00;;;16.50;99.90;;;;;;5073172;28;20225;-63
2021/06/16 00:29:36;;;;;;;5.07;2.90;;;16.50;99.90;;;;;;5074021;28;20205;-63
2021/06/16 00:32:03;;;;;;;7.03;3.10;;;16.50;99.90;;;;;;5074445;28;20209;-62
2021/06/16 00:34:31;;;;;;;9.87;3.70;;;16.40;99.90;;;;;;5073969;28;20208;-62
2021/06/16 00:36:57;;;;;;;5.43;3.00;;;16.40;99.90;;;;;;5073104;28;20575;-63
2021/06/16 00:39:24;;;;;;;5.63;3.07;;;16.40;99.90;;;;;;5073985;28;20200;-64
2021/06/16 00:41:50;;;;;;;6.60;3.40;;;16.40;99.90;;;;;;5074043;28;20209;-61
2021/06/16 00:44:17;;;;;;;7.13;3.60;;;16.30;99.90;;;;;;5073319;28;20598;-62
2021/06/16 00:46:45;;;;;;;9.90;3.73;;;16.30;99.90;;;;;;5072556;28;20258;-61
2021/06/16 00:49:11;;;;;;;7.10;3.50;;;16.30;99.90;;;;;;5074300;28;20213;-63
2021/06/16 00:51:38;;;;;;;7.60;3.60;;;16.30;99.90;;;;;;5073925;28;20205;-62
2021/06/16 00:54:10;;;;;;;8.63;3.73;;;16.30;99.90;;;;;;5073895;28;20673;-63
2021/06/16 00:56:37;;;;;;;7.70;2.93;;;16.30;99.90;;;;;;5073151;28;20673;-63
2021/06/16 00:59:04;;;;;;;7.17;3.43;;;16.30;99.90;;;;;;5074255;28;20251;-62
2021/06/16 01:01:30;;;;;;;6.83;3.40;;;16.30;99.90;;;;;;5073795;28;20555;-63
2021/06/16 01:04:06;;;;;;;6.67;3.47;;;16.20;99.90;;;;;;5073786;28;20558;-63
2021/06/16 01:06:37;;;;;;;8.73;3.87;;;16.20;99.90;;;;;;5072247;28;20204;-63
2021/06/16 01:09:11;;;;;;;7.30;3.67;;;16.20;99.90;;;;;;5073756;28;20580;-63
2021/06/16 01:11:51;;;;;;;6.90;3.57;;;16.20;99.90;;;;;;5072856;28;20241;-63
2021/06/16 01:14:22;;;;;;;8.77;3.27;;;16.20;99.90;;;;;;5073934;28;20211;-64
2021/06/16 01:16:53;;;;;;;8.03;3.33;;;16.20;99.90;;;;;;5073472;28;20221;-63
2021/06/16 01:19:41;;;;;;;8.80;3.80;;;16.20;99.90;;;;;;5073126;28;20735;-63
2021/06/16 01:22:17;;;;;;;5.57;3.63;;;16.10;99.90;;;;;;5073507;28;20211;-63
2021/06/16 01:24:48;;;;;;;6.03;3.70;;;16.10;99.90;;;;;;5073028;28;20225;-64
2021/06/16 01:27:17;;;;;;;4.63;3.70;;;16.10;99.90;;;;;;5071852;28;20302;-63
2021/06/16 01:29:44;;;;;;;10.17;3.90;;;16.10;99.90;;;;;;5073256;28;20209;-63
2021/06/16 01:32:11;;;;;;;8.27;3.50;;;16.10;99.90;;;;;;5073088;28;20223;-63
2021/06/16 01:34:38;;;;;;;12.30;3.83;;;16.10;99.90;;;;;;5072777;28;20204;-63
2021/06/16 01:37:05;;;;;;;7.50;3.43;;;16.10;99.90;;;;;;5071669;28;20225;-63
2021/06/16 01:39:35;;;;;;;8.27;4.20;;;16.00;99.90;;;;;;5072819;28;20208;-63
2021/06/16 01:42:08;;;;;;;7.07;3.50;;;16.00;99.90;;;;;;5072892;28;20204;-64
2021/06/16 01:44:37;;;;;;;8.43;3.97;;;16.00;99.90;;;;;;5072479;28;20228;-63
2021/06/16 01:47:05;;;;;;;5.60;3.50;;;16.00;99.90;;;;;;5072507;28;20228;-63
2021/06/16 01:49:32;;;;;;;7.37;3.60;;;16.00;99.90;;;;;;5072902;28;20254;-63
2021/06/16 01:52:00;;;;;;;9.37;4.33;;;16.00;99.90;;;;;;5072778;28;20704;-63
2021/06/16 01:54:28;;;;;;;7.63;3.90;;;16.00;99.90;;;;;;5071870;28;20205;-63
2021/06/16 01:56:55;;;;;;;7.90;3.47;;;16.00;99.90;;;;;;5072337;28;20248;-63
2021/06/16 01:59:23;;;;;;;7.70;3.50;;;16.00;99.90;;;;;;5072844;28;20278;-64
2021/06/16 02:01:51;;;;;;;13.30;4.07;;;16.00;99.90;;;;;;5072632;28;20209;-63
2021/06/16 02:04:18;;;;;;;7.70;3.93;;;15.90;99.90;;;;;;5072368;28;20201;-63
2021/06/16 02:06:49;;;;;;;7.40;4.00;;;15.90;99.90;;;;;;5071492;28;20286;-63
2021/06/16 02:09:19;;;;;;;6.70;3.87;;;15.90;99.90;;;;;;5072407;28;20209;-63
2021/06/16 02:11:45;;;;;;;7.57;4.23;;;15.80;99.90;;;;;;5072701;28;20635;-64
2021/06/16 02:14:15;;;;;;;5.97;3.93;;;15.80;99.90;;;;;;5073585;28;20205;-64
2021/06/16 02:16:49;;;;;;;9.37;4.00;;;15.70;99.90;;;;;;5076138;28;20278;-61
2021/06/16 02:19:20;;;;;;;8.87;4.43;;;15.70;99.90;;;;;;5078674;28;20497;-64
2021/06/16 02:21:47;;;;;;;9.00;4.40;;;15.70;99.90;;;;;;5077129;28;20262;-63
2021/06/16 02:24:14;;;;;;;8.47;4.43;;;15.70;99.90;;;;;;5074741;28;20669;-63
2021/06/16 02:26:40;;;;;;;8.10;4.90;;;15.70;99.90;;;;;;5073648;28;20232;-64
2021/06/16 02:29:09;;;;;;;9.57;5.20;;;15.60;99.90;;;;;;5073040;28;20201;-64
2021/06/16 02:31:36;;;;;;;7.07;4.90;;;15.60;99.90;;;;;;5072019;28;20205;-64
2021/06/16 02:34:03;;;;;;;8.30;4.73;;;15.60;99.90;;;;;;5071476;28;20208;-63
2021/06/16 02:36:35;;;;;;;8.77;5.33;;;15.50;99.90;;;;;;5070283;28;20204;-64
2021/06/16 02:39:04;;;;;;;8.87;4.97;;;15.50;99.90;;;;;;5071616;28;20212;-64
2021/06/16 02:41:32;;;;;;;11.93;5.43;;;15.50;99.90;;;;;;5072049;28;20633;-64
2021/06/16 02:43:59;;;;;;;11.13;5.30;;;15.50;99.90;;;;;;5072045;28;20259;-64
2021/06/16 02:46:27;;;;;;;9.30;4.53;;;15.50;99.90;;;;;;5070185;28;20229;-63
2021/06/16 02:48:54;;;;;;;7.17;5.30;;;15.50;99.90;;;;;;5071921;28;20254;-63
2021/06/16 02:51:21;;;;;;;8.80;5.70;;;15.50;99.90;;;;;;5072001;28;20213;-63
2021/06/16 02:53:50;;;;;;;8.30;5.10;;;15.40;99.90;;;;;;5071815;28;20208;-64
2021/06/16 02:56:18;;;;;;;11.27;5.67;;;15.40;99.90;;;;;;5070118;28;20215;-64
2021/06/16 02:58:47;;;;;;;10.83;5.33;;;15.40;99.90;;;;;;5071695;28;20229;-64
2021/06/16 03:01:16;;;;;;;7.87;5.70;;;15.40;99.90;;;;;;5071585;28;20205;-64
2021/06/16 03:03:47;;;;;;;12.33;5.50;;;15.40;99.90;;;;;;5071542;28;20215;-63
2021/06/16 03:06:16;;;;;;;12.30;6.40;;;15.30;99.90;;;;;;5070100;28;20228;-63
2021/06/16 03:08:44;;;;;;;9.10;5.57;;;15.30;99.90;;;;;;5070631;28;20259;-64
2021/06/16 03:11:13;;;;;;;9.30;5.67;;;15.30;99.90;;;;;;5071749;28;20208;-63
2021/06/16 03:13:40;;;;;;;13.23;5.70;;;15.30;99.90;;;;;;5071517;28;20213;-63
2021/06/16 03:16:07;;;;;;;8.70;5.70;;;15.30;99.90;;;;;;5071480;28;20205;-63
2021/06/16 03:18:34;;;;;;;8.43;5.83;;;15.30;99.90;;;;;;5071362;28;20220;-63
2021/06/16 03:21:01;;;;;;;8.83;5.97;;;15.30;99.90;;;;;;5071621;28;20215;-64
2021/06/16 03:23:29;;;;;;;9.00;5.97;;;15.30;99.90;;;;;;5071703;28;20205;-64
2021/06/16 03:25:57;;;;;;;11.23;6.97;;;15.20;99.90;;;;;;5070230;28;20708;-64
2021/06/16 03:28:27;;;;;;;9.60;5.83;;;15.20;99.90;;;;;;5071511;28;20233;-64
2021/06/16 03:30:56;;;;;;;10.30;6.57;;;15.30;99.90;;;;;;5071397;28;20205;-63
2021/06/16 03:33:23;;;;;;;14.67;6.20;;;15.30;99.90;;;;;;5071621;28;20254;-63
2021/06/16 03:35:50;;;;;;;10.47;6.80;;;15.30;99.90;;;;;;5072592;28;20262;-63
2021/06/16 03:38:17;;;;;;;13.03;7.07;;;15.30;99.90;;;;;;5075080;28;20282;-64
2021/06/16 03:40:45;;;;;;;9.73;6.53;;;15.30;99.90;;;;;;5075237;28;20211;-63
2021/06/16 03:43:12;;;;;;;11.20;7.17;;;15.30;99.90;;;;;;5075485;28;20201;-63
2021/06/16 03:45:42;;;;;;;9.73;6.43;;;15.30;99.90;;;;;;5074234;28;20236;-63
2021/06/16 03:48:10;;;;;;;10.73;6.40;;;15.30;99.90;;;;;;5074990;28;20266;-64
2021/06/16 03:50:39;;;;;;;11.83;6.53;;;15.30;99.90;;;;;;5075259;28;20209;-64
2021/06/16 03:53:10;;;;;;;13.20;6.57;;;15.30;99.90;;;;;;5075075;28;20209;-63
2021/06/16 03:55:38;;;;;;;9.83;6.90;;;15.30;99.90;;;;;;5074850;28;20248;-63
2021/06/16 03:58:05;;;;;;;12.50;6.20;;;15.40;99.90;;;;;;5075006;28;20311;-63
2021/06/16 04:00:32;;;;;;;13.50;5.93;;;15.40;99.90;;;;;;5074900;28;20673;-63
2021/06/16 04:03:01;;;;;;;10.83;6.57;;;15.50;99.90;;;;;;5075015;28;20205;-63
2021/06/16 04:05:28;;;;;;;11.10;6.00;;;15.50;99.90;;;;;;5074450;28;20212;-61
2021/06/16 04:07:55;;;;;;;9.03;6.03;;;15.60;99.90;;;;;;5073903;28;20221;-63
2021/06/16 04:10:26;;;;;;;10.37;6.33;;;15.60;99.90;;;;;;5074709;28;20677;-63
2021/06/16 04:12:53;;;;;;;9.13;6.43;;;15.70;99.90;;;;;;5073649;28;20224;-63
2021/06/16 04:15:20;;;;;;;9.67;7.03;;;15.70;99.90;;;;;;5073376;28;20224;-64
2021/06/16 04:17:47;;;;;;;11.23;6.30;;;15.80;99.90;;;;;;5074252;28;20287;-61
2021/06/16 04:20:17;;;;;;;12.43;7.07;;;15.80;99.90;;;;;;5073571;28;20209;-64
2021/06/16 04:22:43;;;;;;;13.53;7.10;;;15.90;99.90;;;;;;5074165;28;20201;-64
2021/06/16 04:25:11;;;;;;;10.70;6.63;;;15.90;99.90;;;;;;5071780;28;20208;-63
2021/06/16 04:27:38;;;;;;;10.07;6.93;;;16.00;99.90;;;;;;5074510;28;20228;-63
2021/06/16 04:30:07;;;;;;;12.70;6.80;;;16.00;99.90;;;;;;5073932;28;20204;-63
2021/06/16 04:32:34;;;;;;;10.83;6.10;;;16.10;99.90;;;;;;5074271;28;20634;-64
2021/06/16 04:35:01;;;;;;;12.13;6.50;;;16.10;99.90;;;;;;5073570;28;20631;-63
2021/06/16 04:37:28;;;;;;;10.07;6.40;;;16.20;99.90;;;;;;5072825;28;20303;-62
2021/06/16 04:39:55;;;;;;;10.90;6.53;;;16.20;99.90;;;;;;5073705;28;20212;-64
2021/06/16 04:42:22;;;;;;;10.30;6.80;;;16.30;99.90;;;;;;5073783;28;20273;-64
2021/06/16 04:44:48;;;;;;;9.47;6.50;;;16.30;99.90;;;;;;5071793;28;20201;-64
2021/06/16 04:47:15;;;;;;;13.90;6.23;;;16.40;99.90;;;;;;5071531;28;20561;-64
2021/06/16 04:49:42;;;;;;;12.30;6.80;;;16.40;99.90;;;;;;5074082;28;20212;-64
2021/06/16 04:52:09;;;;;;;12.87;7.00;;;16.50;99.90;;;;;;5074061;28;20205;-63
2021/06/16 04:54:37;;;;;;;9.57;6.17;;;16.40;99.90;;;;;;5073528;28;20596;-63
2021/06/16 04:57:05;;;;;;;11.10;6.30;;;16.50;99.90;;;;;;5071963;28;20650;-63
2021/06/16 04:59:32;;;;;;;21.63;7.40;;;16.50;99.90;;;;;;5073683;28;20304;-63
2021/06/16 05:01:59;;;;;;;17.57;8.63;;;16.60;99.90;;;;;;5073714;28;20228;-63
2021/06/16 05:04:26;;;;;;;14.20;7.07;;;16.70;99.90;;;;;;5073282;28;20246;-63
2021/06/16 05:06:53;;;;;;;13.60;6.67;;;16.70;99.90;;;;;;5072238;28;20771;-63
2021/06/16 05:09:19;;;;;;;10.03;6.73;;;16.80;99.90;;;;;;5073691;28;20617;-63
2021/06/16 05:11:47;;;;;;;10.33;6.93;;;16.90;99.90;;;;;;5073394;28;20608;-63
2021/06/16 05:14:14;;;;;;;8.40;6.57;;;16.90;99.90;;;;;;5073050;28;20205;-63
2021/06/16 05:16:41;;;;;;;8.73;6.33;;;16.90;99.90;;;;;;5071911;28;20233;-64
2021/06/16 05:19:14;;;;;;;8.97;6.03;;;17.00;99.90;;;;;;5073363;28;20262;-63
2021/06/16 05:21:41;;;;;;;11.53;6.10;;;17.10;99.90;;;;;;5073425;28;20209;-63
2021/06/16 05:24:08;;;;;;;12.67;6.90;;;17.30;99.90;;;;;;5073193;28;20209;-63
2021/06/16 05:26:37;;;;;;;8.50;6.43;;;17.40;99.90;;;;;;5073317;28;20213;-63
2021/06/16 05:29:05;;;;;;;13.93;7.07;;;17.50;99.90;;;;;;5073037;28;20258;-63
2021/06/16 05:31:31;;;;;;;11.67;6.90;;;17.60;99.90;;;;;;5072929;28;20685;-63
2021/06/16 05:33:58;;;;;;;10.07;6.87;;;17.70;99.90;;;;;;5073188;28;20314;-63
2021/06/16 05:36:26;;;;;;;12.37;6.67;;;17.80;99.90;;;;;;5071948;28;20600;-62
2021/06/16 05:38:52;;;;;;;11.90;6.43;;;18.00;99.90;;;;;;5072504;28;20632;-63
2021/06/16 05:41:19;;;;;;;11.93;6.40;;;18.10;99.90;;;;;;5071773;28;20280;-66
2021/06/16 05:43:46;;;;;;;10.47;6.33;;;18.20;99.90;;;;;;5072585;28;20693;-64
2021/06/16 05:46:14;;;;;;;8.83;6.07;;;18.30;99.90;;;;;;5072620;28;20627;-63
2021/06/16 05:48:40;;;;;;;10.13;5.90;;;18.40;99.90;;;;;;5073081;28;20645;-64
2021/06/16 05:51:07;;;;;;;10.83;6.67;;;18.50;99.90;;;;;;5072534;28;20665;-64
2021/06/16 05:53:34;;;;;;;14.83;6.67;;;18.70;99.90;;;;;;5069024;28;20204;-65
2021/06/16 05:56:00;;;;;;;11.23;7.17;;;18.80;99.90;;;;;;5072332;28;20216;-65
2021/06/16 05:58:27;;;;;;;12.37;7.10;;;18.90;99.90;;;;;;5071864;28;20240;-64
2021/06/16 06:00:54;;;;;;;13.13;6.90;;;19.00;99.90;;;;;;5072437;28;20209;-63
2021/06/16 06:03:22;;;;;;;11.47;7.47;;;19.00;99.90;;;;;;5072072;28;20669;-63
2021/06/16 06:05:48;;;;;;;14.27;7.10;;;19.00;99.90;;;;;;5072279;28;20208;-64
2021/06/16 06:08:15;;;;;;;12.07;6.77;;;19.00;99.90;;;;;;5072232;28;20224;-63
2021/06/16 06:10:42;;;;;;;10.33;6.60;;;19.20;99.90;;;;;;5072148;28;20619;-64
2021/06/16 06:13:08;;;;;;;11.37;6.47;;;19.30;99.90;;;;;;5071610;28;20217;-67
2021/06/16 06:15:35;;;;;;;16.20;6.00;;;19.40;99.90;;;;;;5072574;28;20204;-66
2021/06/16 06:18:02;;;;;;;9.13;5.53;;;19.50;99.90;;;;;;5079846;28;20237;-66
2021/06/16 06:20:30;;;;;;;9.47;5.53;;;19.70;99.90;;;;;;5085755;28;20201;-66
2021/06/16 06:22:56;;;;;;;12.27;5.87;;;19.80;99.90;;;;;;5075083;28;20201;-65
2021/06/16 06:25:24;;;;;;;11.50;6.23;;;19.90;99.90;;;;;;5075762;28;20209;-66
2021/06/16 06:27:50;;;;;;;10.03;5.93;;;20.00;99.90;;;;;;5082102;28;20268;-65
2021/06/16 06:30:17;;;;;;;23.87;6.90;;;20.10;99.90;;;;;;5082106;28;20211;-65
2021/06/16 06:32:44;;;;;;;14.20;5.67;;;20.20;99.90;;;;;;5076649;28;20205;-67
2021/06/16 06:35:11;;;;;;;12.43;5.73;;;20.40;99.90;;;;;;5072213;28;20215;-65
2021/06/16 06:37:40;;;;;;;10.47;5.77;;;20.50;99.90;;;;;;5072292;28;20224;-65
2021/06/16 06:40:07;;;;;;;11.50;5.07;;;20.60;99.90;;;;;;5071666;28;20268;-65
2021/06/16 06:42:34;;;;;;;20.37;6.53;;;20.70;99.90;;;;;;5071844;28;20673;-66
2021/06/16 06:45:01;;;;;;;11.90;6.10;;;20.80;99.90;;;;;;5072086;28;20209;-68
2021/06/16 06:47:27;;;;;;;9.80;5.50;;;21.00;99.90;;;;;;5072033;28;20221;-68
2021/06/16 06:49:54;;;;;;;10.17;5.50;;;21.10;99.90;;;;;;5071637;28;20227;-67
2021/06/16 06:52:21;;;;;;;7.37;4.90;;;21.10;99.90;;;;;;5071557;28;20208;-68
2021/06/16 06:54:49;;;;;;;9.17;5.20;;;21.20;99.90;;;;;;5071434;28;20205;-67
2021/06/16 06:57:16;;;;;;;9.83;5.40;;;21.30;99.90;;;;;;5071560;28;20232;-66
2021/06/16 06:59:42;;;;;;;18.17;5.10;;;21.40;99.90;;;;;;5071686;28;20200;-68
2021/06/16 07:02:09;;;;;;;9.77;4.93;;;21.40;99.90;;;;;;5071734;28;20238;-67
2021/06/16 07:04:36;;;;;;;10.07;5.63;;;21.50;99.90;;;;;;5071551;28;20270;-67
2021/06/16 07:07:03;;;;;;;11.50;4.63;;;21.70;99.90;;;;;;5071259;28;20228;-67
2021/06/16 07:09:29;;;;;;;8.37;4.63;;;21.80;99.90;;;;;;5071093;28;20574;-68
2021/06/16 07:11:57;;;;;;;9.47;4.63;;;21.80;99.90;;;;;;5071576;28;20682;-68
2021/06/16 07:14:24;;;;;;;9.60;5.23;;;21.70;99.90;;;;;;5071187;28;20205;-68
2021/06/16 07:16:51;;;;;;;8.77;4.93;;;21.70;99.90;;;;;;5071500;28;20233;-71
2021/06/16 07:19:17;;;;;;;9.27;5.63;;;21.70;99.90;;;;;;5071366;28;20213;-69
2021/06/16 07:21:45;;;;;;;9.93;5.13;;;21.70;99.90;;;;;;5071037;28;20295;-69
2021/06/16 07:24:11;;;;;;;9.47;4.97;;;21.70;99.90;;;;;;5071054;28;20208;-70
2021/06/16 07:26:38;;;;;;;13.20;6.17;;;21.90;99.90;;;;;;5071108;28;20201;-67
2021/06/16 07:29:06;;;;;;;11.67;5.60;;;22.00;99.90;;;;;;5071298;28;20205;-67
2021/06/16 07:31:33;;;;;;;8.87;4.90;;;22.00;99.90;;;;;;5071119;28;20216;-68
2021/06/16 07:34:00;;;;;;;9.60;4.60;;;22.30;99.90;;;;;;5070330;28;20197;-68
2021/06/16 07:36:26;;;;;;;6.77;4.70;;;22.40;99.90;;;;;;5070796;28;20224;-67
2021/06/16 07:38:53;;;;;;;7.30;4.67;;;22.60;99.90;;;;;;5071385;28;20253;-66
2021/06/16 07:41:20;;;;;;;7.93;4.97;;;22.80;99.90;;;;;;5070831;28;20201;-66
2021/06/16 07:43:46;;;;;;;10.40;5.03;;;23.00;99.90;;;;;;5070811;28;20219;-67
2021/06/16 07:46:14;;;;;;;7.43;4.60;;;23.00;99.90;;;;;;5070908;28;20693;-69
2021/06/16 07:48:41;;;;;;;6.90;4.50;;;23.20;99.90;;;;;;5070866;28;20283;-68
2021/06/16 07:51:08;;;;;;;8.13;5.00;;;23.10;99.90;;;;;;5070899;28;20263;-67
2021/06/16 07:53:34;;;;;;;8.73;5.23;;;23.10;99.90;;;;;;5070843;28;20205;-66
2021/06/16 07:56:01;;;;;;;7.83;4.90;;;22.90;99.90;;;;;;5071179;28;20246;-66
2021/06/16 07:58:28;;;;;;;10.37;4.80;;;23.10;99.90;;;;;;5070864;28;20229;-65
2021/06/16 08:00:55;;;;;;;10.60;5.07;;;23.30;99.90;;;;;;5070972;28;20670;-66
2021/06/16 08:03:23;;;;;;;10.50;4.90;;;23.40;99.90;;;;;;5070474;28;20205;-65
2021/06/16 08:05:51;;;;;;;8.87;5.00;;;23.70;99.90;;;;;;5071221;28;20216;-67
2021/06/16 08:08:17;;;;;;;11.63;5.17;;;23.90;99.90;;;;;;5071098;28;20252;-67
2021/06/16 08:10:44;;;;;;;9.67;4.67;;;24.10;99.90;;;;;;5071339;28;20205;-67
2021/06/16 08:13:11;;;;;;;8.43;4.17;;;24.20;99.90;;;;;;5071473;28;20217;-67
2021/06/16 08:15:38;;;;;;;7.60;4.40;;;24.10;99.90;;;;;;5070511;28;20209;-66
2021/06/16 08:18:04;;;;;;;9.40;5.20;;;24.20;99.90;;;;;;5070473;28;20225;-65
2021/06/16 08:20:33;;;;;;;9.03;5.20;;;24.20;99.90;;;;;;5070839;28;20640;-67
2021/06/16 08:22:59;;;;;;;9.53;5.23;;;24.20;99.90;;;;;;5074344;28;20596;-67
2021/06/16 08:25:26;;;;;;;8.37;5.27;;;24.20;99.90;;;;;;5074380;28;20205;-68
2021/06/16 08:27:53;;;;;;;9.13;5.30;;;24.30;99.90;;;;;;5074338;28;20232;-66
2021/06/16 08:30:20;;;;;;;8.63;5.17;;;24.30;99.90;;;;;;5074049;28;20232;-68
2021/06/16 08:32:47;;;;;;;13.23;5.60;;;24.40;99.90;;;;;;5073998;28;20677;-66
2021/06/16 08:35:14;;;;;;;9.33;5.23;;;24.60;99.90;;;;;;5074287;28;20205;-66
2021/06/16 08:37:43;;;;;;;17.03;6.10;;;24.80;99.90;;;;;;5073867;28;20236;-66
2021/06/16 08:40:11;;;;;;;14.87;6.17;;;25.00;99.90;;;;;;5073900;28;20681;-67
2021/06/16 08:42:37;;;;;;;10.93;5.87;;;25.20;99.90;;;;;;5073966;28;20260;-66
2021/06/16 08:45:06;;;;;;;14.40;6.03;;;25.10;99.90;;;;;;5073970;28;20200;-66
2021/06/16 08:47:34;;;;;;;13.20;6.60;;;25.00;99.90;;;;;;5073825;28;20278;-67
2021/06/16 08:50:05;;;;;;;10.13;5.90;;;25.00;99.90;;;;;;5073928;28;20582;-64
2021/06/16 08:52:31;;;;;;;15.13;5.67;;;24.90;99.90;;;;;;5073452;28;20674;-68
2021/06/16 08:55:04;;;;;;;8.60;5.37;;;25.00;99.90;;;;;;5073848;28;20209;-68
2021/06/16 08:57:30;;;;;;;9.23;6.00;;;25.20;99.90;;;;;;5073557;28;20227;-67
2021/06/16 08:59:57;;;;;;;10.13;5.87;;;25.00;99.90;;;;;;5073513;28;21017;-67
2021/06/16 09:02:24;;;;;;;11.03;5.70;;;25.10;99.90;;;;;;5073501;28;20209;-68
2021/06/16 09:04:52;;;;;;;9.83;5.23;;;25.20;99.90;;;;;;5073528;28;20347;-68
2021/06/16 09:07:20;;;;;;;9.63;5.87;;;25.30;99.90;;;;;;5073474;28;20278;-67
2021/06/16 09:09:48;;;;;;;9.50;4.80;;;25.40;99.90;;;;;;5073437;28;20563;-66
2021/06/16 09:12:30;;;;;;;13.13;5.10;;;25.60;99.90;;;;;;5073095;28;20244;-68
2021/06/16 09:14:57;;;;;;;9.17;5.40;;;25.70;99.90;;;;;;5073215;28;20204;-67
2021/06/16 09:17:24;;;;;;;11.70;5.90;;;25.70;99.90;;;;;;5073187;28;20229;-69
2021/06/16 09:19:53;;;;;;;10.57;5.77;;;25.70;99.90;;;;;;5073309;28;20681;-71
2021/06/16 09:22:28;;;;;;;10.50;5.03;;;25.80;99.90;;;;;;5072819;28;20200;-66
2021/06/16 09:24:56;;;;;;;11.90;5.57;;;26.00;99.90;;;;;;5073362;28;20295;-68
2021/06/16 09:27:45;;;;;;;8.27;5.10;;;26.10;99.90;;;;;;5072969;28;20778;-65
2021/06/16 09:30:33;;;;;;;11.40;5.10;;;26.10;99.90;;;;;;5073229;28;20256;-66
2021/06/16 09:33:06;;;;;;;9.93;5.63;;;26.20;99.90;;;;;;5071826;28;20246;-65
2021/06/16 09:35:34;;;;;;;11.57;5.27;;;26.40;99.90;;;;;;5073145;28;20209;-67
2021/06/16 09:38:03;;;;;;;10.40;7.17;;;26.40;99.90;;;;;;5072796;28;20232;-66
2021/06/16 09:40:31;;;;;;;29.60;18.63;;;26.40;99.90;;;;;;5072806;28;20216;-67
2021/06/16 09:43:01;;;;;;;8.93;5.70;;;26.40;99.90;;;;;;5072419;28;20212;-67
2021/06/16 09:45:29;;;;;;;11.03;5.33;;;26.60;99.90;;;;;;5072586;28;20215;-67
2021/06/16 09:47:56;;;;;;;11.10;5.73;;;26.70;99.90;;;;;;5073020;28;20221;-68
2021/06/16 09:50:24;;;;;;;8.17;5.30;;;26.60;99.90;;;;;;5072571;28;20304;-68
2021/06/16 09:52:51;;;;;;;8.40;6.07;;;26.60;99.90;;;;;;5072634;28;20240;-66
2021/06/16 09:55:27;;;;;;;10.90;5.90;;;26.50;99.90;;;;;;5072720;28;20391;-68
2021/06/16 09:58:03;;;;;;;8.60;5.50;;;26.50;99.90;;;;;;5072899;28;20240;-66
2021/06/16 10:00:31;;;;;;;6.60;5.30;;;26.70;99.90;;;;;;5072682;28;20284;-66
2021/06/16 10:03:12;;;;;;;6.53;5.30;;;27.00;99.90;;;;;;5072188;28;20213;-66
2021/06/16 10:06:07;;;;;;;6.73;5.17;;;27.10;99.90;;;;;;5072535;28;20208;-66
2021/06/16 10:08:35;;;;;;;8.33;5.33;;;27.10;99.90;;;;;;5064873;28;20278;-67
2021/06/16 10:11:02;;;;;;;11.57;5.10;;;27.20;99.90;;;;;;5072247;28;20298;-67
2021/06/16 10:13:31;;;;;;;9.40;5.73;;;27.30;99.90;;;;;;5071970;28;20637;-68
2021/06/16 10:16:00;;;;;;;8.77;5.20;;;27.40;99.90;;;;;;5072590;28;20301;-66
2021/06/16 10:18:28;;;;;;;9.20;6.07;;;27.60;99.90;;;;;;5072667;28;20235;-66
2021/06/16 10:20:57;;;;;;;11.93;9.10;;;27.60;99.90;;;;;;5071902;28;20633;-66
2021/06/16 10:23:25;;;;;;;6.87;5.57;;;27.60;99.90;;;;;;5072636;28;20232;-68
2021/06/16 10:25:52;;;;;;;8.60;6.40;;;27.30;99.90;;;;;;5072866;28;20201;-68
2021/06/16 10:28:22;;;;;;;9.57;5.97;;;27.30;99.90;;;;;;5072136;28;20221;-69
2021/06/16 10:30:56;;;;;;;10.83;6.87;;;27.50;99.90;;;;;;5077471;28;20209;-69
2021/06/16 10:33:31;;;;;;;7.37;5.07;;;27.70;99.90;;;;;;5074386;28;20201;-66
2021/06/16 10:36:12;;;;;;;8.20;5.97;;;27.80;99.90;;;;;;5072069;28;20204;-66
2021/06/16 10:38:40;;;;;;;11.17;6.43;;;27.80;99.90;;;;;;5078215;28;20240;-66
2021/06/16 10:41:07;;;;;;;12.00;7.07;;;27.90;99.90;;;;;;5079186;28;20627;-67
2021/06/16 10:43:34;;;;;;;11.00;6.17;;;27.80;99.90;;;;;;5078397;28;20205;-66
2021/06/16 10:46:05;;;;;;;7.90;5.70;;;27.90;99.90;;;;;;5070923;28;20205;-65
2021/06/16 10:48:56;;;;;;;9.10;6.33;;;28.10;99.90;;;;;;5071952;28;20217;-66
2021/06/16 10:51:32;;;;;;;8.43;6.07;;;28.20;99.90;;;;;;5071192;28;20841;-66
2021/06/16 10:54:17;;;;;;;10.67;7.10;;;28.40;99.90;;;;;;5071563;28;20646;-66
2021/06/16 10:56:46;;;;;;;8.77;6.37;;;28.50;99.90;;;;;;5071453;28;20256;-66
2021/06/16 10:59:13;;;;;;;8.47;6.33;;;28.50;99.90;;;;;;5071774;28;20224;-66
2021/06/16 11:01:51;;;;;;;9.63;6.57;;;28.60;99.90;;;;;;5071474;28;20582;-66
2021/06/16 11:04:32;;;;;;;10.03;6.80;;;28.80;99.90;;;;;;5071564;28;20212;-67
2021/06/16 11:06:59;;;;;;;9.10;6.90;;;28.80;99.90;;;;;;5071326;28;20650;-67
2021/06/16 11:09:50;;;;;;;9.97;7.13;;;28.90;99.90;;;;;;5071556;28;20216;-66
2021/06/16 11:12:16;;;;;;;8.90;6.50;;;28.80;99.90;;;;;;5071073;28;20212;-67
2021/06/16 11:14:48;;;;;;;7.47;6.60;;;29.00;99.90;;;;;;5071408;28;20205;-67
2021/06/16 11:17:48;;;;;;;8.50;6.90;;;29.10;99.90;;;;;;5071037;28;20225;-67
2021/06/16 11:20:22;;;;;;;10.43;6.50;;;29.20;99.90;;;;;;5071473;28;20859;-66
2021/06/16 11:22:52;;;;;;;9.57;7.00;;;28.90;99.90;;;;;;5071002;28;20216;-66
2021/06/16 11:25:35;;;;;;;10.03;7.30;;;28.90;99.90;;;;;;5071383;28;20258;-66
2021/06/16 11:28:07;;;;;;;9.10;6.00;;;29.00;99.90;;;;;;5071415;28;20224;-66
2021/06/16 11:30:39;;;;;;;12.50;7.03;;;29.10;99.90;;;;;;5071438;28;20204;-66
2021/06/16 11:33:35;;;;;;;8.20;7.03;;;29.20;99.90;;;;;;5070938;28;20208;-66
2021/06/16 11:36:06;;;;;;;11.97;7.43;;;29.00;99.90;;;;;;5070984;28;20240;-66
2021/06/16 11:38:35;;;;;;;8.17;6.47;;;29.10;99.90;;;;;;5071612;28;20232;-67
2021/06/16 11:41:16;;;;;;;7.68;5.78;;;29.30;99.90;;;;;;5071091;28;20209;-68
2021/06/16 11:43:44;;;;;;;9.10;6.00;;;29.60;99.90;;;;;;5071122;28;20673;-67
2021/06/16 11:46:17;;;;;;;6.93;5.67;;;29.70;99.90;;;;;;5071152;28;20211;-68
2021/06/16 11:48:47;;;;;;;6.57;5.55;;;29.50;99.90;;;;;;5071121;28;20229;-67
2021/06/16 11:51:30;;;;;;;7.38;5.38;;;29.80;99.90;;;;;;5071099;28;20237;-68
2021/06/16 11:54:22;;;;;;;7.63;5.20;;;30.10;99.90;;;;;;5070871;28;20727;-67
2021/06/16 11:56:51;;;;;;;9.88;5.47;;;30.10;99.90;;;;;;5072658;28;20229;-67
2021/06/16 11:59:30;;;;;;;10.00;5.18;;;30.20;99.90;;;;;;5074897;28;20221;-67
2021/06/16 12:02:08;;;;;;;9.93;5.40;;;30.30;99.90;;;;;;5074767;28;20208;-66
2021/06/16 12:04:47;;;;;;;7.45;4.72;;;30.50;99.90;;;;;;5074610;28;20204;-68
2021/06/16 12:07:13;;;;;;;7.95;4.88;;;30.60;99.90;;;;;;5074501;28;20597;-67
2021/06/16 12:09:47;;;;;;;7.18;4.57;;;30.70;99.90;;;;;;5075018;28;20205;-70
2021/06/16 12:12:14;;;;;;;12.30;4.95;;;30.50;99.90;;;;;;5074461;28;20220;-66
2021/06/16 12:14:40;;;;;;;6.43;4.85;;;30.60;99.90;;;;;;5074472;28;20212;-66
2021/06/16 12:17:08;;;;;;;8.02;4.90;;;30.60;99.90;;;;;;5074521;28;20644;-65
2021/06/16 12:19:36;;;;;;;7.25;5.47;;;30.30;99.90;;;;;;5074053;28;20225;-65
2021/06/16 12:22:06;;;;;;;4.95;4.35;;;30.40;99.90;;;;;;5074239;28;20209;-66
2021/06/16 12:24:35;;;;;;;8.10;4.75;;;30.30;99.90;;;;;;5074304;28;20209;-65
2021/06/16 12:27:13;;;;;;;6.53;4.72;;;30.40;99.90;;;;;;5073497;28;20224;-66
2021/06/16 12:29:49;;;;;;;9.00;4.63;;;30.10;99.90;;;;;;5074212;28;20200;-68
2021/06/16 12:32:26;;;;;;;6.18;4.32;;;30.30;99.90;;;;;;5073860;28;20719;-67
2021/06/16 12:35:07;;;;;;;5.60;4.70;;;30.50;99.90;;;;;;5074238;28;20204;-66
2021/06/16 12:37:46;;;;;;;7.68;4.30;;;30.80;99.90;;;;;;5074164;28;20606;-65
2021/06/16 12:40:13;;;;;;;5.18;4.15;;;30.70;99.90;;;;;;5074059;28;20831;-66
2021/06/16 12:42:42;;;;;;;7.82;4.22;;;30.80;99.90;;;;;;5073640;28;20209;-65
2021/06/16 12:45:30;;;;;;;14.63;7.40;;;31.00;99.90;;;;;;5073974;28;20208;-68
2021/06/16 12:47:58;;;;;;;3.97;3.50;;;31.00;99.90;;;;;;5074049;28;20228;-65
2021/06/16 12:50:30;;;;;;;5.20;3.72;;;30.70;99.90;;;;;;5073746;28;20212;-66
2021/06/16 12:52:58;;;;;;;9.90;4.55;;;30.80;99.90;;;;;;5073165;28;20289;-66